Time;durP1;ratioP1;P1;durP2;ratioP2;P2;SDS_P1;SDS_P2;PMS_P1;PMS_P2;Temp;Humidity;BMP_temperature;BMP_pressure;BME280_temperature;BME280_humidity;BME280_pressure;Samples;Min_cycle;Max_cycle;Signal;HPM_P1;HPM_P2
2022/06/03 00:00:24;;;;;;;7.65;2.60;;;12.90;99.90;;;;;;5071392;28;20044;-49
2022/06/03 00:03:04;;;;;;;4.25;2.42;;;12.90;99.90;;;;;;5071470;28;20080;-49
2022/06/03 00:05:36;;;;;;;5.47;2.45;;;12.90;99.90;;;;;;5071216;28;20087;-47
2022/06/03 00:08:33;;;;;;;6.85;2.63;;;12.80;99.90;;;;;;5070954;28;20090;-48
2022/06/03 00:11:24;;;;;;;6.68;2.60;;;12.80;99.90;;;;;;5070162;28;20043;-47
2022/06/03 00:14:24;;;;;;;4.65;2.45;;;12.80;99.90;;;;;;5070399;28;20066;-49
2022/06/03 00:17:11;;;;;;;5.75;2.30;;;12.70;99.90;;;;;;5070452;28;20044;-47
2022/06/03 00:19:43;;;;;;;7.18;2.63;;;12.70;99.90;;;;;;5070988;28;20807;-48
2022/06/03 00:22:30;;;;;;;5.43;2.38;;;12.60;99.90;;;;;;5071225;28;20510;-49
2022/06/03 00:25:08;;;;;;;8.02;2.72;;;12.60;99.90;;;;;;5070629;28;20043;-50
2022/06/03 00:27:59;;;;;;;5.70;2.75;;;12.60;99.90;;;;;;5070635;28;20047;-48
2022/06/03 00:30:42;;;;;;;5.07;2.88;;;12.60;99.90;;;;;;5070504;28;20047;-49
2022/06/03 00:33:14;;;;;;;6.10;2.65;;;12.50;99.90;;;;;;5069368;28;20037;-48
2022/06/03 00:36:09;;;;;;;7.03;3.03;;;12.50;99.90;;;;;;5069064;28;20084;-47
2022/06/03 00:39:12;;;;;;;6.75;2.80;;;12.40;99.90;;;;;;5010718;28;20122;-49
2022/06/03 00:41:54;;;;;;;6.47;2.70;;;12.40;99.90;;;;;;5070465;28;20073;-46
2022/06/03 00:44:44;;;;;;;5.97;2.90;;;12.40;99.90;;;;;;5070476;28;20121;-51
2022/06/03 00:47:47;;;;;;;6.95;2.70;;;12.30;99.90;;;;;;5070297;28;20119;-46
2022/06/03 00:50:46;;;;;;;6.57;3.10;;;12.30;99.90;;;;;;5070581;28;20040;-46
2022/06/03 00:53:21;;;;;;;6.53;3.25;;;12.30;99.90;;;;;;5052168;28;20072;-49
2022/06/03 00:56:14;;;;;;;7.03;3.40;;;12.20;99.90;;;;;;5069422;28;20102;-46
2022/06/03 00:59:02;;;;;;;6.00;2.92;;;12.20;99.90;;;;;;5070333;28;20032;-48
2022/06/03 01:01:39;;;;;;;8.90;3.53;;;12.20;99.90;;;;;;5070313;28;20093;-51
2022/06/03 01:04:26;;;;;;;4.57;2.85;;;12.20;99.90;;;;;;5070212;28;20503;-47
2022/06/03 01:07:07;;;;;;;7.47;3.05;;;12.10;99.90;;;;;;5070303;28;20090;-49
2022/06/03 01:09:42;;;;;;;5.35;3.10;;;12.00;99.90;;;;;;5070147;28;20044;-49
2022/06/03 01:12:31;;;;;;;6.10;2.67;;;12.00;99.90;;;;;;5052467;28;20123;-49
2022/06/03 01:15:16;;;;;;;7.45;3.08;;;12.00;99.90;;;;;;5070025;28;20045;-48
2022/06/03 01:18:13;;;;;;;4.65;3.00;;;12.00;99.90;;;;;;5052281;28;20387;-49
2022/06/03 01:20:44;;;;;;;6.70;3.42;;;12.00;99.90;;;;;;5070368;28;20134;-50
2022/06/03 01:23:46;;;;;;;6.32;3.28;;;12.00;99.90;;;;;;5070007;28;20082;-49
2022/06/03 01:26:33;;;;;;;7.75;3.40;;;11.90;99.90;;;;;;5070010;28;20094;-47
2022/06/03 01:29:23;;;;;;;8.60;3.40;;;11.80;99.90;;;;;;5070017;28;20097;-47
2022/06/03 01:32:19;;;;;;;6.28;3.40;;;11.80;99.90;;;;;;5069102;28;20102;-47
2022/06/03 01:35:13;;;;;;;10.27;3.20;;;11.80;99.90;;;;;;5070097;28;20478;-48
2022/06/03 01:38:07;;;;;;;7.05;3.28;;;11.70;99.90;;;;;;5069525;28;20040;-55
2022/06/03 01:40:47;;;;;;;6.72;3.58;;;11.70;99.90;;;;;;5070141;28;20097;-47
2022/06/03 01:43:37;;;;;;;6.53;3.38;;;11.60;99.90;;;;;;5069633;28;20045;-48
2022/06/03 01:46:24;;;;;;;7.28;3.30;;;11.60;99.90;;;;;;5069262;28;20033;-47
2022/06/03 01:48:56;;;;;;;6.75;3.53;;;11.60;99.90;;;;;;5070054;28;20066;-48
2022/06/03 01:51:58;;;;;;;7.70;3.33;;;11.60;99.90;;;;;;5069541;28;20127;-46
2022/06/03 01:55:04;;;;;;;7.70;3.75;;;11.50;99.90;;;;;;5070098;28;20361;-48
2022/06/03 01:57:38;;;;;;;5.75;3.33;;;11.50;99.90;;;;;;5068634;28;20072;-48
2022/06/03 02:00:07;;;;;;;10.70;3.85;;;11.40;99.90;;;;;;5069911;28;20037;-48
2022/06/03 02:03:07;;;;;;;8.85;3.97;;;11.40;99.90;;;;;;5069829;28;20041;-47
2022/06/03 02:05:32;;;;;;;6.20;3.80;;;11.30;99.90;;;;;;5069930;28;20028;-49
2022/06/03 02:08:40;;;;;;;7.15;3.80;;;11.40;99.90;;;;;;5069522;28;20131;-49
2022/06/03 02:11:09;;;;;;;8.55;3.60;;;11.40;99.90;;;;;;5069213;28;20032;-50
2022/06/03 02:13:56;;;;;;;7.05;3.90;;;11.30;99.90;;;;;;5069772;28;20043;-48
2022/06/03 02:17:08;;;;;;;8.15;3.85;;;11.30;99.90;;;;;;5068716;28;20060;-51
2022/06/03 02:20:05;;;;;;;7.32;4.03;;;11.20;99.90;;;;;;5051454;28;20049;-49
2022/06/03 02:23:03;;;;;;;8.43;4.05;;;11.20;99.90;;;;;;5069559;28;20451;-46
2022/06/03 02:25:49;;;;;;;8.10;4.10;;;11.10;99.90;;;;;;5018420;28;20055;-48
2022/06/03 02:28:17;;;;;;;8.63;4.75;;;11.20;99.90;;;;;;5068935;28;20531;-48
2022/06/03 02:31:11;;;;;;;7.38;4.20;;;11.10;99.90;;;;;;5069393;28;20086;-47
2022/06/03 02:34:08;;;;;;;8.98;4.72;;;11.10;99.90;;;;;;5069307;28;20177;-48
2022/06/03 02:36:48;;;;;;;8.95;4.70;;;11.00;99.90;;;;;;5069567;28;20418;-48
2022/06/03 02:39:30;;;;;;;8.93;4.43;;;11.00;99.90;;;;;;5069231;28;20040;-49
2022/06/03 02:42:14;;;;;;;9.48;4.60;;;10.90;99.90;;;;;;5069516;28;20530;-49
2022/06/03 02:45:05;;;;;;;7.88;4.88;;;10.90;99.90;;;;;;5071373;28;20036;-49
2022/06/03 02:47:40;;;;;;;8.45;5.07;;;10.90;99.90;;;;;;5027427;28;20119;-49
2022/06/03 02:50:43;;;;;;;9.45;4.53;;;10.90;99.90;;;;;;5072916;28;20032;-48
2022/06/03 02:53:53;;;;;;;8.55;4.40;;;10.90;99.90;;;;;;5072512;28;20032;-48
2022/06/03 02:56:28;;;;;;;7.35;4.68;;;10.90;99.90;;;;;;5072596;28;20043;-45
2022/06/03 02:59:48;;;;;;;6.25;4.93;;;10.80;99.90;;;;;;5072703;28;20130;-50
2022/06/03 03:02:17;;;;;;;8.57;5.10;;;10.80;99.90;;;;;;5053851;28;20056;-48
2022/06/03 03:05:16;;;;;;;8.70;5.18;;;10.70;99.90;;;;;;5072600;28;20048;-48
2022/06/03 03:08:08;;;;;;;9.52;4.90;;;10.80;99.90;;;;;;5072617;28;20045;-50
2022/06/03 03:10:55;;;;;;;9.18;5.13;;;10.80;99.90;;;;;;5054597;28;20094;-49
2022/06/03 03:13:50;;;;;;;10.05;6.25;;;10.70;99.90;;;;;;5037498;28;20067;-47
2022/06/03 03:16:27;;;;;;;9.80;5.45;;;10.70;99.90;;;;;;5071534;28;20045;-48
2022/06/03 03:19:26;;;;;;;11.05;5.50;;;10.60;99.90;;;;;;5072177;28;20216;-51
2022/06/03 03:22:09;;;;;;;8.90;5.60;;;10.60;99.90;;;;;;5072178;28;20036;-49
2022/06/03 03:24:35;;;;;;;11.38;5.28;;;10.60;99.90;;;;;;5072318;28;20040;-45
2022/06/03 03:27:09;;;;;;;10.40;5.45;;;10.60;99.90;;;;;;5071001;28;20120;-49
2022/06/03 03:30:16;;;;;;;10.13;5.40;;;10.60;99.90;;;;;;5072285;28;20052;-48
2022/06/03 03:33:11;;;;;;;9.55;5.30;;;10.60;99.90;;;;;;5071316;28;20616;-47
2022/06/03 03:35:54;;;;;;;9.85;6.13;;;10.50;99.90;;;;;;4982784;28;20194;-46
2022/06/03 03:38:30;;;;;;;12.52;5.35;;;10.50;99.90;;;;;;5071831;28;20041;-46
2022/06/03 03:41:18;;;;;;;10.63;5.90;;;10.50;99.90;;;;;;5071520;28;20136;-46
2022/06/03 03:44:38;;;;;;;9.35;5.50;;;10.50;99.90;;;;;;5052597;28;20040;-48
2022/06/03 03:47:36;;;;;;;11.18;6.45;;;10.50;99.90;;;;;;4969990;28;20368;-49
2022/06/03 03:50:08;;;;;;;9.10;5.85;;;10.50;99.90;;;;;;5072138;28;20059;-49
2022/06/03 03:52:36;;;;;;;9.27;6.20;;;10.50;99.90;;;;;;5053198;28;20033;-49
2022/06/03 03:55:29;;;;;;;10.05;5.88;;;10.50;99.90;;;;;;5071109;28;20463;-49
2022/06/03 03:58:33;;;;;;;10.65;6.07;;;10.40;99.90;;;;;;5070539;28;20036;-47
2022/06/03 04:00:58;;;;;;;11.60;6.18;;;10.50;99.90;;;;;;5071438;28;20078;-46
2022/06/03 04:03:55;;;;;;;11.43;6.50;;;10.60;99.90;;;;;;5071132;28;20479;-49
2022/06/03 04:06:48;;;;;;;10.27;6.30;;;10.50;99.90;;;;;;5070934;28;20039;-50
2022/06/03 04:09:33;;;;;;;10.15;6.13;;;10.50;99.90;;;;;;5071075;28;20043;-47
2022/06/03 04:12:09;;;;;;;12.38;7.25;;;10.50;99.90;;;;;;5070962;28;20044;-48
2022/06/03 04:14:59;;;;;;;12.32;6.40;;;10.50;99.90;;;;;;5071132;28;20044;-50
2022/06/03 04:17:49;;;;;;;8.70;6.25;;;10.60;99.90;;;;;;5070555;28;20403;-49
2022/06/03 04:20:29;;;;;;;12.23;6.85;;;10.60;99.90;;;;;;5071028;28;20123;-46
2022/06/03 04:23:44;;;;;;;10.95;6.30;;;10.70;99.90;;;;;;5071123;28;20048;-48
2022/06/03 04:26:24;;;;;;;13.32;6.70;;;10.70;99.90;;;;;;5039166;28;20048;-49
2022/06/03 04:29:07;;;;;;;7.70;5.63;;;10.70;99.90;;;;;;5070740;28;20040;-47
2022/06/03 04:32:04;;;;;;;11.40;6.63;;;10.80;99.90;;;;;;5070737;28;20036;-48
2022/06/03 04:34:50;;;;;;;10.00;6.57;;;10.90;99.90;;;;;;5070841;28;20033;-49
2022/06/03 04:37:38;;;;;;;10.45;6.00;;;10.90;99.90;;;;;;5052909;28;20048;-48
2022/06/03 04:40:09;;;;;;;10.25;6.57;;;10.90;99.90;;;;;;5070501;28;20463;-50
2022/06/03 04:43:02;;;;;;;8.25;5.65;;;11.00;99.90;;;;;;5070466;28;20391;-49
2022/06/03 04:45:49;;;;;;;9.70;6.15;;;11.10;99.90;;;;;;5070234;28;20051;-46
2022/06/03 04:48:38;;;;;;;11.77;6.13;;;11.20;99.90;;;;;;5070525;28;20475;-47
2022/06/03 04:51:48;;;;;;;11.30;5.90;;;11.30;99.90;;;;;;5070199;28;20041;-48
2022/06/03 04:54:38;;;;;;;10.40;6.13;;;11.50;99.90;;;;;;5070009;28;20032;-50
2022/06/03 04:57:41;;;;;;;10.02;6.25;;;11.60;99.90;;;;;;5069854;28;20576;-49
2022/06/03 05:00:43;;;;;;;8.32;5.13;;;11.70;99.90;;;;;;5070513;28;20309;-51
2022/06/03 05:03:32;;;;;;;10.57;6.00;;;11.80;99.90;;;;;;5070421;28;20039;-48
2022/06/03 05:06:13;;;;;;;7.53;5.13;;;11.90;99.90;;;;;;5051864;28;20059;-47
2022/06/03 05:08:59;;;;;;;9.40;5.63;;;11.90;99.90;;;;;;5070265;28;20044;-48
2022/06/03 05:12:02;;;;;;;9.13;5.20;;;12.00;99.90;;;;;;5070265;28;20046;-50
2022/06/03 05:15:04;;;;;;;12.70;5.88;;;12.00;99.90;;;;;;5069970;28;20041;-49
2022/06/03 05:18:00;;;;;;;10.02;5.70;;;12.00;99.90;;;;;;5069216;28;20135;-48
2022/06/03 05:20:34;;;;;;;9.32;5.43;;;12.00;99.90;;;;;;5070245;28;20048;-49
2022/06/03 05:23:13;;;;;;;;;;;12.10;99.90;;;;;;5070663;28;20037;-48
2022/06/03 05:26:22;;;;;;;7.30;4.97;;;12.10;99.90;;;;;;5070284;28;20046;-49
2022/06/03 05:29:17;;;;;;;7.97;4.57;;;12.20;99.90;;;;;;5069416;28;20068;-50
2022/06/03 05:32:01;;;;;;;7.57;5.07;;;12.20;99.90;;;;;;5069738;28;20028;-47
2022/06/03 05:34:45;;;;;;;7.68;4.40;;;12.30;99.90;;;;;;5070173;28;20068;-49
2022/06/03 05:37:10;;;;;;;8.68;4.75;;;12.30;99.90;;;;;;5069746;28;20041;-50
2022/06/03 05:39:46;;;;;;;7.55;4.47;;;12.40;99.90;;;;;;5069598;28;20044;-47
2022/06/03 05:42:29;;;;;;;7.70;4.30;;;12.40;99.90;;;;;;5069950;28;20083;-48
2022/06/03 05:45:19;;;;;;;8.20;4.50;;;12.50;99.90;;;;;;5053261;28;20129;-48
2022/06/03 05:47:53;;;;;;;10.32;4.40;;;12.60;99.90;;;;;;5069543;28;20039;-49
2022/06/03 05:50:41;;;;;;;7.95;3.78;;;12.60;99.90;;;;;;5069625;28;20191;-50
2022/06/03 05:53:19;;;;;;;7.20;3.97;;;12.60;99.90;;;;;;5069542;28;20115;-50
2022/06/03 05:55:53;;;;;;;10.00;4.20;;;12.70;99.90;;;;;;5069590;28;20032;-48
2022/06/03 05:58:59;;;;;;;9.18;4.28;;;12.70;99.90;;;;;;5051229;28;20049;-48
2022/06/03 06:01:47;;;;;;;8.32;3.83;;;12.90;99.90;;;;;;5069289;28;20099;-49
2022/06/03 06:04:48;;;;;;;7.40;3.70;;;12.90;99.90;;;;;;5069139;28;20047;-47
2022/06/03 06:07:23;;;;;;;7.13;3.70;;;13.00;99.90;;;;;;4980294;28;20047;-49
2022/06/03 06:10:00;;;;;;;8.68;4.10;;;13.00;99.90;;;;;;5069811;28;20462;-49
2022/06/03 06:12:52;;;;;;;11.20;4.45;;;13.10;99.90;;;;;;5069430;28;20040;-50
2022/06/03 06:15:55;;;;;;;8.57;3.92;;;13.20;99.90;;;;;;5055974;28;20084;-45
2022/06/03 06:18:54;;;;;;;11.88;3.90;;;13.30;99.90;;;;;;5070997;28;20056;-51
2022/06/03 06:21:28;;;;;;;7.40;4.10;;;13.30;99.90;;;;;;5073411;28;20035;-50
2022/06/03 06:24:10;;;;;;;9.27;4.18;;;13.40;99.90;;;;;;5073328;28;20032;-49
2022/06/03 06:27:03;;;;;;;8.13;3.90;;;13.50;99.90;;;;;;5055616;28;20513;-50
2022/06/03 06:30:06;;;;;;;6.10;3.33;;;13.60;99.90;;;;;;5072988;28;20047;-47
2022/06/03 06:32:53;;;;;;;8.55;3.95;;;13.60;99.90;;;;;;5073328;28;20040;-47
2022/06/03 06:35:59;;;;;;;7.05;3.20;;;13.80;99.90;;;;;;5073369;28;20032;-48
2022/06/03 06:38:42;;;;;;;7.15;4.13;;;13.80;99.90;;;;;;5072635;28;20044;-48
2022/06/03 06:41:45;;;;;;;9.07;3.67;;;13.90;99.90;;;;;;5072467;28;20662;-48
2022/06/03 06:44:49;;;;;;;5.10;3.17;;;14.00;99.90;;;;;;5072740;28;20037;-49
2022/06/03 06:47:46;;;;;;;7.05;3.53;;;14.10;99.90;;;;;;5072673;28;20040;-49
2022/06/03 06:50:23;;;;;;;9.50;3.13;;;14.20;99.90;;;;;;5072920;28;20045;-49
2022/06/03 06:53:19;;;;;;;4.93;3.20;;;14.30;99.90;;;;;;5072632;28;20063;-50
2022/06/03 06:56:33;;;;;;;6.68;3.67;;;14.30;99.90;;;;;;5072713;28;20545;-49
2022/06/03 06:59:07;;;;;;;6.45;3.47;;;14.50;99.90;;;;;;5050193;28;20084;-51
2022/06/03 07:01:58;;;;;;;5.72;3.35;;;14.50;99.90;;;;;;5070989;28;20040;-51
2022/06/03 07:04:30;;;;;;;7.78;3.50;;;14.60;99.90;;;;;;5072487;28;20079;-46
2022/06/03 07:06:58;;;;;;;6.15;3.03;;;14.80;99.90;;;;;;5072523;28;20357;-50
2022/06/03 07:09:29;;;;;;;5.55;3.08;;;14.90;99.90;;;;;;5072504;28;20050;-48
2022/06/03 07:12:05;;;;;;;7.25;3.38;;;14.90;99.90;;;;;;5072548;28;20072;-51
2022/06/03 07:14:42;;;;;;;8.23;3.35;;;14.90;99.90;;;;;;5072559;28;20045;-49
2022/06/03 07:20:51;;;;;;;7.28;3.17;;;15.20;99.90;;;;;;5046556;28;20044;-47
2022/06/03 07:23:39;;;;;;;6.30;3.30;;;15.30;99.90;;;;;;5072319;28;20486;-48
2022/06/03 07:26:27;;;;;;;7.53;3.40;;;15.40;99.90;;;;;;5071820;28;20032;-50
2022/06/03 07:29:21;;;;;;;7.78;3.15;;;15.50;99.90;;;;;;5071595;28;20089;-48
2022/06/03 07:32:09;;;;;;;8.40;3.30;;;15.60;99.90;;;;;;5071916;28;20036;-49
2022/06/03 07:34:47;;;;;;;6.53;2.97;;;15.70;99.90;;;;;;5056596;28;20049;-48
2022/06/03 07:37:25;;;;;;;6.65;3.58;;;15.80;99.90;;;;;;5071853;28;20119;-49
2022/06/03 07:40:03;;;;;;;7.55;3.38;;;15.80;99.90;;;;;;5072080;28;20514;-49
2022/06/03 07:43:05;;;;;;;8.68;3.60;;;15.80;99.90;;;;;;5069254;28;20098;-51
2022/06/03 07:46:05;;;;;;;6.18;3.80;;;15.90;99.90;;;;;;5071761;28;20119;-49
2022/06/03 07:48:33;;;;;;;8.15;3.50;;;16.00;99.90;;;;;;5049979;28;20040;-47
2022/06/03 07:51:07;;;;;;;6.65;3.78;;;16.00;99.90;;;;;;5071501;28;20076;-47
2022/06/03 07:53:38;;;;;;;8.10;3.53;;;16.10;99.90;;;;;;5071696;28;20109;-47
2022/06/03 07:56:04;;;;;;;6.45;3.63;;;16.20;99.90;;;;;;5071249;28;20090;-47
2022/06/03 07:58:33;;;;;;;6.20;3.28;;;16.20;99.90;;;;;;5071620;28;20029;-49
2022/06/03 08:00:59;;;;;;;9.27;3.67;;;16.30;99.90;;;;;;5071300;28;20037;-46
2022/06/03 08:03:33;;;;;;;7.35;3.22;;;16.40;99.90;;;;;;5071527;28;20037;-49
2022/06/03 08:06:01;;;;;;;7.32;3.50;;;16.40;99.90;;;;;;5071540;28;20037;-47
2022/06/03 08:11:30;;;;;;;8.30;3.47;;;16.60;99.90;;;;;;5071231;28;20047;-50
2022/06/03 08:13:58;;;;;;;8.63;3.55;;;16.60;99.90;;;;;;5070593;28;20067;-49
2022/06/03 08:16:40;;;;;;;7.53;3.42;;;16.70;99.90;;;;;;5052304;28;20044;-51
2022/06/03 08:19:13;;;;;;;7.90;3.78;;;16.70;99.90;;;;;;5070819;28;20036;-46
2022/06/03 08:21:46;;;;;;;9.65;3.80;;;16.90;99.90;;;;;;5070803;28;20040;-51
2022/06/03 08:24:19;;;;;;;7.88;3.10;;;16.90;99.90;;;;;;5070722;28;20106;-48
2022/06/03 08:26:51;;;;;;;6.30;3.00;;;16.90;99.90;;;;;;5070935;28;20041;-51
2022/06/03 08:29:29;;;;;;;7.00;3.40;;;17.10;99.90;;;;;;5070704;28;20071;-50
2022/06/03 08:31:56;;;;;;;5.95;2.95;;;17.20;99.90;;;;;;5071026;28;20036;-48
2022/06/03 08:34:38;;;;;;;8.20;3.50;;;17.30;99.90;;;;;;5070479;28;20177;-47
2022/06/03 08:37:06;;;;;;;6.78;3.63;;;17.40;99.90;;;;;;5070948;28;20082;-48
2022/06/03 08:39:33;;;;;;;6.40;3.42;;;17.40;99.90;;;;;;5070440;28;20048;-46
2022/06/03 08:42:21;;;;;;;6.85;3.25;;;17.50;99.90;;;;;;5069626;28;20089;-49
2022/06/03 08:45:16;;;;;;;5.88;2.90;;;17.60;99.90;;;;;;5070505;28;20040;-50
2022/06/03 08:47:52;;;;;;;7.28;3.42;;;17.70;99.90;;;;;;5048536;28;20438;-47
2022/06/03 08:50:40;;;;;;;7.57;3.67;;;17.80;99.90;;;;;;5070482;28;20403;-49
2022/06/03 08:53:23;;;;;;;7.65;3.50;;;17.90;99.90;;;;;;5070346;28;20062;-49
2022/06/03 08:56:06;;;;;;;8.68;3.45;;;18.00;99.90;;;;;;5070406;28;20467;-52
2022/06/03 08:58:50;;;;;;;6.15;3.30;;;18.10;99.90;;;;;;5070309;28;20551;-50
2022/06/03 09:01:38;;;;;;;5.63;3.10;;;18.20;99.90;;;;;;5069762;28;20032;-49
2022/06/03 09:04:21;;;;;;;5.78;2.95;;;18.30;99.90;;;;;;5052308;28;20434;-49
2022/06/03 09:07:09;;;;;;;7.78;3.75;;;18.60;99.90;;;;;;5070380;28;20032;-48
2022/06/03 09:09:51;;;;;;;6.15;2.75;;;18.60;99.90;;;;;;5069965;28;20063;-49
2022/06/03 09:12:28;;;;;;;6.30;3.42;;;18.90;99.90;;;;;;5070074;28;21775;-49
2022/06/03 09:14:59;;;;;;;5.13;3.13;;;19.00;99.90;;;;;;5070496;28;20486;-48
2022/06/03 09:17:52;;;;;;;5.18;2.80;;;19.40;99.90;;;;;;5069239;28;20052;-48
2022/06/03 09:20:36;;;;;;;6.57;3.03;;;19.40;99.90;;;;;;5051859;28;20052;-48
2022/06/03 09:23:07;;;;;;;5.70;2.30;;;19.40;99.90;;;;;;5070062;28;20047;-50
2022/06/03 09:25:37;;;;;;;7.60;3.00;;;19.70;99.90;;;;;;5070184;28;20041;-49
2022/06/03 09:28:06;;;;;;;8.10;2.70;;;19.90;99.90;;;;;;5069555;28;20097;-50
2022/06/03 09:30:39;;;;;;;4.53;2.40;;;19.90;99.90;;;;;;5069811;28;20071;-49
2022/06/03 09:33:11;;;;;;;6.20;2.90;;;20.10;99.90;;;;;;5069794;28;20037;-48
2022/06/03 09:35:40;;;;;;;4.28;2.50;;;20.10;99.90;;;;;;5051733;28;20045;-48
2022/06/03 09:38:08;;;;;;;5.57;2.42;;;20.00;99.90;;;;;;5069922;28;20471;-52
2022/06/03 09:40:40;;;;;;;4.72;2.60;;;20.20;99.90;;;;;;5069951;28;20534;-51
2022/06/03 09:43:27;;;;;;;6.97;2.67;;;20.50;99.90;;;;;;5069758;28;20089;-50
2022/06/03 09:45:56;;;;;;;4.60;2.35;;;20.60;99.90;;;;;;5069635;28;20094;-50
2022/06/03 09:48:27;;;;;;;5.57;2.90;;;20.60;99.90;;;;;;5050570;28;20391;-49
2022/06/03 09:51:00;;;;;;;5.97;2.55;;;20.50;99.90;;;;;;5069936;28;20442;-50
2022/06/03 09:53:30;;;;;;;6.20;2.45;;;20.70;99.90;;;;;;5071570;28;20075;-48
2022/06/03 09:56:07;;;;;;;5.35;2.00;;;20.80;99.90;;;;;;5074041;28;20494;-48
2022/06/03 09:58:34;;;;;;;6.13;2.17;;;20.70;99.90;;;;;;5073838;28;20032;-52
2022/06/03 10:01:03;;;;;;;4.78;2.00;;;20.80;99.90;;;;;;5055499;28;20051;-49
2022/06/03 10:03:29;;;;;;;5.50;2.30;;;21.00;99.90;;;;;;5073445;28;20044;-49
2022/06/03 10:05:57;;;;;;;4.43;2.10;;;20.80;99.90;;;;;;5073339;28;20037;-48
2022/06/03 10:14:02;;;;;;;7.80;2.63;;;21.00;99.90;;;;;;5073563;28;20080;-50
2022/06/03 10:16:28;;;;;;;8.30;2.50;;;20.70;99.90;;;;;;5072575;28;20074;-48
2022/06/03 10:18:56;;;;;;;6.13;2.47;;;21.00;99.90;;;;;;5073358;28;20123;-49
2022/06/03 10:21:21;;;;;;;5.85;2.35;;;21.10;99.90;;;;;;5073736;28;20036;-48
2022/06/03 10:23:54;;;;;;;6.80;2.20;;;21.20;99.90;;;;;;5073304;28;20035;-50
2022/06/03 10:26:33;;;;;;;6.70;2.20;;;21.30;99.90;;;;;;5073464;28;20028;-49
2022/06/03 10:29:09;;;;;;;7.32;2.22;;;21.40;99.90;;;;;;5073459;28;20115;-48
2022/06/03 10:31:36;;;;;;;5.03;2.03;;;21.50;99.90;;;;;;5073069;28;20040;-47
2022/06/03 10:34:11;;;;;;;4.97;1.90;;;21.60;99.90;;;;;;5072871;28;20044;-47
2022/06/03 10:36:42;;;;;;;5.00;2.00;;;21.40;99.90;;;;;;5073133;28;20044;-51
2022/06/03 10:39:13;;;;;;;4.82;2.17;;;21.50;99.60;;;;;;5072868;28;20101;-50
2022/06/03 10:41:43;;;;;;;4.57;2.40;;;21.60;99.80;;;;;;5072930;28;20574;-48
2022/06/03 10:44:11;;;;;;;4.85;2.10;;;21.60;98.40;;;;;;5072871;28;20040;-52
2022/06/03 10:46:37;;;;;;;5.40;2.00;;;21.40;98.20;;;;;;5072145;28;20040;-48
2022/06/03 10:49:12;;;;;;;4.18;1.60;;;21.70;99.10;;;;;;5073317;28;20119;-51
2022/06/03 11:02:49;;;;;;;4.18;1.70;;;22.00;97.10;;;;;;5072648;28;20055;-46
2022/06/03 11:05:31;;;;;;;3.53;1.70;;;21.80;96.60;;;;;;5071699;28;20480;-48
2022/06/03 11:08:05;;;;;;;4.60;1.90;;;22.10;96.20;;;;;;5072180;28;20116;-49
2022/06/03 11:10:40;;;;;;;4.03;1.90;;;22.20;96.50;;;;;;5072672;28;20514;-51
2022/06/03 11:13:09;;;;;;;5.93;1.73;;;22.10;96.00;;;;;;5072403;28;20120;-52
2022/06/03 11:15:41;;;;;;;3.53;1.45;;;22.40;96.50;;;;;;5072380;28;20043;-48
2022/06/03 11:18:32;;;;;;;3.78;1.40;;;22.20;96.60;;;;;;5071799;28;20044;-50
2022/06/03 11:21:20;;;;;;;3.70;1.50;;;22.60;95.50;;;;;;5072368;28;20102;-50
2022/06/03 11:23:46;;;;;;;4.70;1.58;;;22.60;95.30;;;;;;5072113;28;20128;-51
2022/06/03 11:26:12;;;;;;;3.83;1.80;;;22.80;97.00;;;;;;5072257;28;20107;-49
2022/06/03 11:28:44;;;;;;;4.82;1.75;;;22.80;96.00;;;;;;5072208;28;20051;-50
2022/06/03 11:31:18;;;;;;;5.07;1.50;;;23.00;94.60;;;;;;5071627;28;20076;-49
2022/06/03 11:34:04;;;;;;;3.22;1.60;;;23.10;95.90;;;;;;5054043;28;20040;-50
2022/06/03 11:36:38;;;;;;;7.32;2.63;;;23.10;95.20;;;;;;5071945;28;20051;-50
2022/06/03 11:39:07;;;;;;;;;;;23.40;95.60;;;;;;5072500;28;20087;-48
2022/06/03 11:41:52;;;;;;;3.55;1.33;;;23.50;95.20;;;;;;5071487;28;19930;-48
2022/06/03 11:44:47;;;;;;;5.97;1.80;;;23.50;93.50;;;;;;5054135;28;20048;-52
2022/06/03 11:47:16;;;;;;;3.03;1.60;;;23.80;94.20;;;;;;5071386;28;20033;-50
2022/06/03 11:49:42;;;;;;;2.97;1.40;;;23.80;94.80;;;;;;5071699;28;20040;-51
2022/06/03 11:52:08;;;;;;;4.40;1.35;;;23.90;94.50;;;;;;5071566;28;20040;-48
2022/06/03 11:54:34;;;;;;;5.65;1.70;;;23.90;94.60;;;;;;5071438;28;20126;-49
2022/06/03 11:57:02;;;;;;;3.08;1.55;;;23.70;93.00;;;;;;5071203;28;20094;-50
2022/06/03 11:59:44;;;;;;;4.32;1.60;;;24.10;92.70;;;;;;5071464;28;20071;-49
2022/06/03 12:02:20;;;;;;;3.42;1.45;;;24.00;91.40;;;;;;5053595;28;20509;-50
2022/06/03 12:04:52;;;;;;;4.22;1.63;;;24.20;91.90;;;;;;5071258;28;20043;-47
2022/06/03 12:07:36;;;;;;;4.05;1.67;;;24.30;92.00;;;;;;5071333;28;20100;-50
2022/06/03 12:10:11;;;;;;;4.93;1.60;;;24.20;90.80;;;;;;5071091;28;20036;-51
2022/06/03 12:15:44;;;;;;;4.15;1.60;;;24.40;91.80;;;;;;5070812;28;20098;-50
2022/06/03 12:18:10;;;;;;;3.28;1.42;;;24.40;92.90;;;;;;5070682;28;20650;-48
2022/06/03 12:20:47;;;;;;;4.85;1.60;;;24.70;92.20;;;;;;5071268;28;20041;-51
2022/06/03 12:23:12;;;;;;;5.65;1.67;;;24.90;90.90;;;;;;5070771;28;20098;-50
2022/06/03 12:25:41;;;;;;;3.22;1.45;;;25.00;90.10;;;;;;5071196;28;20048;-48
2022/06/03 12:28:19;;;;;;;5.13;1.60;;;24.80;88.20;;;;;;5070797;28;20227;-51
2022/06/03 12:31:12;;;;;;;5.22;1.40;;;24.70;90.60;;;;;;5070672;28;20049;-45
2022/06/03 12:34:06;;;;;;;4.43;1.80;;;24.80;90.50;;;;;;5023648;28;20125;-49
2022/06/03 12:36:55;;;;;;;3.50;1.50;;;24.90;87.90;;;;;;5070367;28;20036;-48
2022/06/03 12:39:29;;;;;;;3.45;1.42;;;24.60;89.40;;;;;;5051165;28;20062;-50
2022/06/03 12:41:57;;;;;;;;;;;24.80;90.80;;;;;;5071118;28;20463;-44
2022/06/03 12:44:36;;;;;;;6.68;1.77;;;25.10;90.00;;;;;;5070400;28;19924;-49
2022/06/03 12:47:25;;;;;;;5.07;1.58;;;25.00;89.30;;;;;;5070558;28;20048;-48
2022/06/03 12:49:53;;;;;;;3.50;1.42;;;25.10;86.60;;;;;;5052469;28;20070;-49
2022/06/03 12:52:22;;;;;;;3.53;1.25;;;25.40;86.60;;;;;;5070740;28;20043;-49
2022/06/03 12:55:15;;;;;;;4.47;1.70;;;25.40;87.80;;;;;;5070295;28;20044;-48
2022/06/03 12:57:53;;;;;;;3.55;1.30;;;25.70;86.80;;;;;;5070415;28;20090;-50
2022/06/03 13:00:18;;;;;;;4.15;1.40;;;25.60;85.80;;;;;;5069990;28;20037;-49
2022/06/03 13:02:58;;;;;;;5.97;1.77;;;25.60;86.10;;;;;;5070581;28;20040;-51
2022/06/03 13:05:40;;;;;;;5.25;1.73;;;24.90;84.80;;;;;;5070301;28;20036;-49
2022/06/03 13:08:09;;;;;;;2.30;1.15;;;25.30;87.40;;;;;;5052271;28;20035;-46
2022/06/03 13:10:57;;;;;;;4.85;1.50;;;25.50;86.10;;;;;;5035737;28;20036;-53
2022/06/03 13:13:34;;;;;;;2.38;1.25;;;25.20;86.00;;;;;;5069984;28;20032;-49
2022/06/03 13:16:19;;;;;;;4.40;1.60;;;25.20;85.70;;;;;;5070098;28;20052;-49
2022/06/03 13:18:54;;;;;;;3.10;1.20;;;25.50;85.30;;;;;;5070364;28;20053;-48
2022/06/03 13:21:20;;;;;;;4.05;1.40;;;25.90;85.90;;;;;;5070170;28;20077;-49
2022/06/03 13:23:57;;;;;;;3.45;1.25;;;26.00;83.30;;;;;;5069976;28;20028;-49
2022/06/03 13:26:22;;;;;;;3.63;1.60;;;26.10;83.70;;;;;;5070274;28;20039;-52
2022/06/03 13:28:53;;;;;;;4.55;1.60;;;26.00;80.80;;;;;;5069228;28;20399;-51
2022/06/03 13:31:38;;;;;;;2.90;1.02;;;26.20;82.30;;;;;;5070226;28;20511;-52
2022/06/03 13:34:08;;;;;;;4.80;1.38;;;25.80;80.20;;;;;;5069863;28;20454;-51
2022/06/03 13:36:51;;;;;;;4.05;1.17;;;26.50;80.90;;;;;;5070245;28;20527;-54
2022/06/03 13:39:23;;;;;;;3.22;1.35;;;26.40;80.60;;;;;;5069942;28;20106;-51
2022/06/03 13:45:03;;;;;;;4.35;1.30;;;26.50;80.00;;;;;;5070135;28;20507;-51
2022/06/03 13:47:34;;;;;;;4.15;1.10;;;26.40;78.90;;;;;;5069448;28;20051;-46
2022/06/03 13:50:19;;;;;;;4.45;1.45;;;26.60;79.10;;;;;;5069919;28;20074;-51
2022/06/03 13:52:47;;;;;;;2.42;1.05;;;26.60;77.00;;;;;;5069942;28;20047;-50
2022/06/03 13:55:32;;;;;;;3.25;1.52;;;27.10;79.20;;;;;;5069987;28;20187;-51
2022/06/03 13:58:02;;;;;;;2.67;1.30;;;27.10;75.90;;;;;;5051536;28;20132;-50
2022/06/03 14:00:39;;;;;;;2.95;1.35;;;27.00;74.80;;;;;;5069550;28;20048;-51
2022/06/03 14:03:04;;;;;;;4.60;1.33;;;27.10;76.30;;;;;;5069651;28;20048;-50
2022/06/03 14:05:40;;;;;;;4.25;1.17;;;27.30;75.80;;;;;;5069995;28;20107;-50
2022/06/03 14:08:24;;;;;;;3.63;1.33;;;27.00;74.00;;;;;;5069981;28;20071;-49
2022/06/03 14:11:06;;;;;;;;;;;27.10;74.00;;;;;;5051691;28;20483;-52
2022/06/03 14:13:46;;;;;;;2.55;1.00;;;26.90;73.70;;;;;;5069472;28;19977;-50
2022/06/03 14:16:18;;;;;;;3.58;1.40;;;27.00;74.00;;;;;;5069110;28;20080;-50
2022/06/03 14:18:52;;;;;;;3.92;1.50;;;27.20;73.10;;;;;;5069276;28;20380;-48
2022/06/03 14:21:50;;;;;;;3.53;1.00;;;27.70;72.40;;;;;;5069535;28;20503;-48
2022/06/03 14:24:31;;;;;;;2.60;1.13;;;27.80;72.80;;;;;;5049653;28;20483;-51
2022/06/03 14:27:02;;;;;;;4.03;1.30;;;27.90;73.70;;;;;;5051534;28;20106;-48
2022/06/03 14:29:31;;;;;;;2.85;1.20;;;27.90;69.90;;;;;;5051262;28;20036;-50